Portada
METAR-TAF:

METAR-TAF

Aeropuertos :

Aeropuerto de Yakutsk

Yakutsk, Rusia

latitud: 62-01N, longitud: 129-43E, altitud: 103 m

Observación

El informe se hizo hace 16 minutos, a las 00:00 UTC
Viento 4 kt del sur-sureste
Temperatura 20°C
Humedad 68%
Presión 1009 hPa
Visibilidad 10 km o más
sin nubes por debajo de 1500 m y sin presencia de cumulonimbus.

METAR: UEEE 220000Z 15002MPS CAVOK 20/14 Q1009 R23/09//60 NOSIG RMK QFE748

Hora: 09:16 (00:16 UTC)

Pronóstico

El informe se hizo hace 1 hora y 16 minutos, a las 23:00 UTC
Pronóstico válido del 22 a las 00 UTC al 23 a las 06 UTC
Viento 6 kt del sur-sureste con ráfagas de 16 kt
Visibilidad 10 km o más
sin nubes por debajo de 1500 m y sin presencia de cumulonimbus.
Temporalmente
del 22 a las 00 UTC al 22 a las 12 UTC
Viento 16 kt con dirección variable

TAF: UEEE 212300Z 2200/2306 15003G08MPS CAVOK TX29/2206Z TN15/2218Z TEMPO 2200/2212 VRB08MPS

Observaciones y pronósticos meteorológicos de más de 4000 aeropuertos (mensajes METAR y TAF).

Los puntos amarillos y rojos representan las estaciones disponibles.

Ponga el ratón en el punto deseado para ver el nombre de la estación.

Haga clic para ver las observaciones y los pronósticos meteorológicos.

Para cambiar el mapa : haga clic en los botones verdes con una cruz de color negro para hacer un zoom, en el botón verde con un guión para alejar o en las flechas verdes para mapas adyacentes.


METAR-TAF: